aviador You're here:

KASD Decoded Metar

SLIDELL 22 in LA, USA
Report Time2017-10-23 23:53:00
UTC Time2017-10-24 00:25:37
Flight Rules vfr VFR
WindCalm
Visibility9999 m
Phenomena:N/A
Clouds:N/A
Expected CloudBase > 2,000 ft AGL from Temp-Dew spread
CeilingNone
Temp17°C (ISA +2)
Dew Point12°C (73% RH)
QNH1016 hPa
Density Alt358 ft
Elevation30 ft
Report Wrong Elevation
Raw Report
KASD 232353Z AUTO 00000KT 10SM CLR 17/12 A3001 RMK AO2 SLP160
T01670117 10244 20167 53003=

Extra information for KASD:More info

Metar Taf Metar & Taf Last 4 Metars F.Rules Stats Wind Profile Meteogram Temp Stats Airport Information Weather charts Add Link Nearby VenuesMetar ALERT Operation Metar Decoded Social comments

AIRNAV info for KASD